sensor_id;sensor_type;location;lat;lon;timestamp;temperature;humidity
27540;DHT22;15906;52.046;4.724;2023-04-26T00:00:18;4.70;99.90
27540;DHT22;15906;52.046;4.724;2023-04-26T00:02:43;4.70;99.90
27540;DHT22;15906;52.046;4.724;2023-04-26T00:05:09;4.80;99.90
27540;DHT22;15906;52.046;4.724;2023-04-26T00:07:34;4.70;99.90
27540;DHT22;15906;52.046;4.724;2023-04-26T00:10:02;4.70;99.90
27540;DHT22;15906;52.046;4.724;2023-04-26T00:12:28;4.70;99.90
27540;DHT22;15906;52.046;4.724;2023-04-26T00:14:53;4.70;99.90
27540;DHT22;15906;52.046;4.724;2023-04-26T00:17:19;4.60;99.90
27540;DHT22;15906;52.046;4.724;2023-04-26T00:19:45;4.60;99.90
27540;DHT22;15906;52.046;4.724;2023-04-26T00:22:11;4.60;99.90
27540;DHT22;15906;52.046;4.724;2023-04-26T00:24:37;4.60;99.90
27540;DHT22;15906;52.046;4.724;2023-04-26T00:27:02;4.60;99.90
27540;DHT22;15906;52.046;4.724;2023-04-26T00:29:33;4.50;99.90
27540;DHT22;15906;52.046;4.724;2023-04-26T00:31:59;4.40;99.90
27540;DHT22;15906;52.046;4.724;2023-04-26T00:34:30;4.40;99.90
27540;DHT22;15906;52.046;4.724;2023-04-26T00:36:55;4.40;99.90
27540;DHT22;15906;52.046;4.724;2023-04-26T00:39:21;4.30;99.90
27540;DHT22;15906;52.046;4.724;2023-04-26T00:41:47;4.30;99.90
27540;DHT22;15906;52.046;4.724;2023-04-26T00:44:12;4.30;99.90
27540;DHT22;15906;52.046;4.724;2023-04-26T00:46:38;4.30;99.90
27540;DHT22;15906;52.046;4.724;2023-04-26T00:49:04;4.20;99.90
27540;DHT22;15906;52.046;4.724;2023-04-26T00:51:29;4.20;99.90
27540;DHT22;15906;52.046;4.724;2023-04-26T00:53:55;4.10;99.90
27540;DHT22;15906;52.046;4.724;2023-04-26T00:56:23;4.10;99.90
27540;DHT22;15906;52.046;4.724;2023-04-26T00:58:49;3.90;99.90
27540;DHT22;15906;52.046;4.724;2023-04-26T01:01:15;4.00;99.90
27540;DHT22;15906;52.046;4.724;2023-04-26T01:03:40;4.00;99.90
27540;DHT22;15906;52.046;4.724;2023-04-26T01:06:06;4.00;99.90
27540;DHT22;15906;52.046;4.724;2023-04-26T01:08:32;3.90;99.90
27540;DHT22;15906;52.046;4.724;2023-04-26T01:10:58;4.00;99.90
27540;DHT22;15906;52.046;4.724;2023-04-26T01:13:24;4.00;99.90
27540;DHT22;15906;52.046;4.724;2023-04-26T01:15:51;4.00;99.90
27540;DHT22;15906;52.046;4.724;2023-04-26T01:18:16;3.90;99.90
27540;DHT22;15906;52.046;4.724;2023-04-26T01:20:43;3.90;99.90
27540;DHT22;15906;52.046;4.724;2023-04-26T01:23:11;3.90;99.90
27540;DHT22;15906;52.046;4.724;2023-04-26T01:25:36;3.90;99.90
27540;DHT22;15906;52.046;4.724;2023-04-26T01:28:02;3.90;99.90
27540;DHT22;15906;52.046;4.724;2023-04-26T01:30:28;3.90;99.90
27540;DHT22;15906;52.046;4.724;2023-04-26T01:32:53;3.90;99.90
27540;DHT22;15906;52.046;4.724;2023-04-26T01:35:19;3.90;99.90
27540;DHT22;15906;52.046;4.724;2023-04-26T01:37:45;3.80;99.90
27540;DHT22;15906;52.046;4.724;2023-04-26T01:40:11;3.80;99.90
27540;DHT22;15906;52.046;4.724;2023-04-26T01:42:36;3.80;99.90
27540;DHT22;15906;52.046;4.724;2023-04-26T01:45:02;3.80;99.90
27540;DHT22;15906;52.046;4.724;2023-04-26T01:47:28;3.80;99.90
27540;DHT22;15906;52.046;4.724;2023-04-26T01:49:53;3.80;99.90
27540;DHT22;15906;52.046;4.724;2023-04-26T02:05:48;3.70;99.90
27540;DHT22;15906;52.046;4.724;2023-04-26T02:08:13;3.60;99.90
27540;DHT22;15906;52.046;4.724;2023-04-26T02:10:39;3.60;99.90
27540;DHT22;15906;52.046;4.724;2023-04-26T02:13:07;3.60;99.90
27540;DHT22;15906;52.046;4.724;2023-04-26T02:15:33;3.60;99.90
27540;DHT22;15906;52.046;4.724;2023-04-26T02:17:58;3.60;99.90
27540;DHT22;15906;52.046;4.724;2023-04-26T02:20:24;3.60;99.90
27540;DHT22;15906;52.046;4.724;2023-04-26T02:22:49;3.50;99.90
27540;DHT22;15906;52.046;4.724;2023-04-26T02:25:15;3.50;99.90
27540;DHT22;15906;52.046;4.724;2023-04-26T02:27:40;3.60;99.90
27540;DHT22;15906;52.046;4.724;2023-04-26T02:30:06;3.60;99.90
27540;DHT22;15906;52.046;4.724;2023-04-26T02:32:32;3.60;99.90
27540;DHT22;15906;52.046;4.724;2023-04-26T02:34:58;3.60;99.90
27540;DHT22;15906;52.046;4.724;2023-04-26T02:37:24;3.60;99.90
27540;DHT22;15906;52.046;4.724;2023-04-26T02:39:50;3.60;99.90
27540;DHT22;15906;52.046;4.724;2023-04-26T02:42:16;3.60;99.90
27540;DHT22;15906;52.046;4.724;2023-04-26T02:44:41;3.60;99.90
27540;DHT22;15906;52.046;4.724;2023-04-26T02:47:07;3.60;99.90
27540;DHT22;15906;52.046;4.724;2023-04-26T02:49:33;3.60;99.90
27540;DHT22;15906;52.046;4.724;2023-04-26T02:51:59;3.60;99.90
27540;DHT22;15906;52.046;4.724;2023-04-26T02:54:24;3.70;99.90
27540;DHT22;15906;52.046;4.724;2023-04-26T02:56:50;3.70;99.90
27540;DHT22;15906;52.046;4.724;2023-04-26T02:59:16;3.70;99.90
27540;DHT22;15906;52.046;4.724;2023-04-26T03:01:42;3.70;99.90
27540;DHT22;15906;52.046;4.724;2023-04-26T03:04:07;3.70;99.90
27540;DHT22;15906;52.046;4.724;2023-04-26T03:06:33;3.60;99.90
27540;DHT22;15906;52.046;4.724;2023-04-26T03:08:59;3.60;99.90
27540;DHT22;15906;52.046;4.724;2023-04-26T03:11:25;3.60;99.90
27540;DHT22;15906;52.046;4.724;2023-04-26T03:13:50;3.60;99.90
27540;DHT22;15906;52.046;4.724;2023-04-26T03:16:18;3.60;99.90
27540;DHT22;15906;52.046;4.724;2023-04-26T03:18:45;3.70;99.90
27540;DHT22;15906;52.046;4.724;2023-04-26T03:21:11;3.70;99.90
27540;DHT22;15906;52.046;4.724;2023-04-26T03:23:37;3.70;99.90
27540;DHT22;15906;52.046;4.724;2023-04-26T03:26:02;3.60;99.90
27540;DHT22;15906;52.046;4.724;2023-04-26T03:28:28;3.60;99.90
27540;DHT22;15906;52.046;4.724;2023-04-26T03:30:54;3.60;99.90
27540;DHT22;15906;52.046;4.724;2023-04-26T03:33:19;3.60;99.90
27540;DHT22;15906;52.046;4.724;2023-04-26T03:35:45;3.60;99.90
27540;DHT22;15906;52.046;4.724;2023-04-26T03:38:10;3.60;99.90
27540;DHT22;15906;52.046;4.724;2023-04-26T03:40:36;3.60;99.90
27540;DHT22;15906;52.046;4.724;2023-04-26T03:43:02;3.50;99.90
27540;DHT22;15906;52.046;4.724;2023-04-26T03:45:27;3.50;99.90
27540;DHT22;15906;52.046;4.724;2023-04-26T03:47:53;3.50;99.90
27540;DHT22;15906;52.046;4.724;2023-04-26T03:50:18;3.50;99.90
27540;DHT22;15906;52.046;4.724;2023-04-26T03:52:44;3.40;99.90
27540;DHT22;15906;52.046;4.724;2023-04-26T03:55:10;3.40;99.90
27540;DHT22;15906;52.046;4.724;2023-04-26T03:57:36;3.40;99.90
27540;DHT22;15906;52.046;4.724;2023-04-26T04:00:03;3.50;99.90
27540;DHT22;15906;52.046;4.724;2023-04-26T04:02:38;3.50;99.90
27540;DHT22;15906;52.046;4.724;2023-04-26T04:05:03;3.40;99.90
27540;DHT22;15906;52.046;4.724;2023-04-26T04:07:29;3.40;99.90
27540;DHT22;15906;52.046;4.724;2023-04-26T04:09:57;3.40;99.90
27540;DHT22;15906;52.046;4.724;2023-04-26T04:12:23;3.40;99.90
27540;DHT22;15906;52.046;4.724;2023-04-26T04:14:48;3.40;99.90
27540;DHT22;15906;52.046;4.724;2023-04-26T04:17:14;3.30;99.90
27540;DHT22;15906;52.046;4.724;2023-04-26T04:19:39;3.30;99.90
27540;DHT22;15906;52.046;4.724;2023-04-26T04:22:05;3.30;99.90
27540;DHT22;15906;52.046;4.724;2023-04-26T04:24:31;3.30;99.90
27540;DHT22;15906;52.046;4.724;2023-04-26T04:26:56;3.30;99.90
27540;DHT22;15906;52.046;4.724;2023-04-26T04:29:22;3.30;99.90
27540;DHT22;15906;52.046;4.724;2023-04-26T04:31:48;3.20;99.90
27540;DHT22;15906;52.046;4.724;2023-04-26T04:34:13;3.30;99.90
27540;DHT22;15906;52.046;4.724;2023-04-26T04:36:41;3.30;99.90
27540;DHT22;15906;52.046;4.724;2023-04-26T04:39:07;3.30;99.90
27540;DHT22;15906;52.046;4.724;2023-04-26T04:41:38;3.30;99.90
27540;DHT22;15906;52.046;4.724;2023-04-26T04:44:04;3.40;99.90
27540;DHT22;15906;52.046;4.724;2023-04-26T04:46:30;3.50;99.90
27540;DHT22;15906;52.046;4.724;2023-04-26T04:48:55;3.60;99.90
27540;DHT22;15906;52.046;4.724;2023-04-26T04:51:21;3.60;99.90
27540;DHT22;15906;52.046;4.724;2023-04-26T04:53:46;3.60;99.90
27540;DHT22;15906;52.046;4.724;2023-04-26T04:56:12;3.70;99.90
27540;DHT22;15906;52.046;4.724;2023-04-26T04:58:38;3.70;99.90
27540;DHT22;15906;52.046;4.724;2023-04-26T05:01:04;3.70;99.90
27540;DHT22;15906;52.046;4.724;2023-04-26T05:03:30;3.70;99.90
27540;DHT22;15906;52.046;4.724;2023-04-26T05:05:58;3.70;99.90
27540;DHT22;15906;52.046;4.724;2023-04-26T05:08:24;3.70;99.90
27540;DHT22;15906;52.046;4.724;2023-04-26T05:10:50;3.80;99.90
27540;DHT22;15906;52.046;4.724;2023-04-26T05:13:16;3.80;99.90
27540;DHT22;15906;52.046;4.724;2023-04-26T05:15:41;3.80;99.90
27540;DHT22;15906;52.046;4.724;2023-04-26T05:18:07;3.80;99.90
27540;DHT22;15906;52.046;4.724;2023-04-26T05:20:32;3.90;99.90
27540;DHT22;15906;52.046;4.724;2023-04-26T05:22:58;3.90;99.90
27540;DHT22;15906;52.046;4.724;2023-04-26T05:25:23;3.90;99.90
27540;DHT22;15906;52.046;4.724;2023-04-26T05:27:49;4.00;99.90
27540;DHT22;15906;52.046;4.724;2023-04-26T05:30:15;4.00;99.90
27540;DHT22;15906;52.046;4.724;2023-04-26T05:32:41;4.10;99.90
27540;DHT22;15906;52.046;4.724;2023-04-26T05:35:07;4.20;99.90
27540;DHT22;15906;52.046;4.724;2023-04-26T05:37:33;4.30;99.90
27540;DHT22;15906;52.046;4.724;2023-04-26T05:40:00;4.30;99.90
27540;DHT22;15906;52.046;4.724;2023-04-26T05:42:25;4.40;99.90
27540;DHT22;15906;52.046;4.724;2023-04-26T05:44:56;4.40;99.90
27540;DHT22;15906;52.046;4.724;2023-04-26T05:47:22;4.40;99.90
27540;DHT22;15906;52.046;4.724;2023-04-26T05:49:47;4.50;99.90
27540;DHT22;15906;52.046;4.724;2023-04-26T05:52:13;4.60;99.90
27540;DHT22;15906;52.046;4.724;2023-04-26T05:54:38;4.60;99.90
27540;DHT22;15906;52.046;4.724;2023-04-26T05:57:04;4.60;99.90
27540;DHT22;15906;52.046;4.724;2023-04-26T05:59:29;4.70;99.90
27540;DHT22;15906;52.046;4.724;2023-04-26T06:01:57;4.90;99.90
27540;DHT22;15906;52.046;4.724;2023-04-26T06:04:22;5.10;99.90
27540;DHT22;15906;52.046;4.724;2023-04-26T06:06:48;5.20;99.90
27540;DHT22;15906;52.046;4.724;2023-04-26T06:09:14;5.30;99.90
27540;DHT22;15906;52.046;4.724;2023-04-26T06:11:39;5.40;99.90
27540;DHT22;15906;52.046;4.724;2023-04-26T06:14:05;5.50;99.90
27540;DHT22;15906;52.046;4.724;2023-04-26T06:16:31;5.60;99.90
27540;DHT22;15906;52.046;4.724;2023-04-26T06:18:56;5.70;99.90
27540;DHT22;15906;52.046;4.724;2023-04-26T06:21:22;5.80;99.90
27540;DHT22;15906;52.046;4.724;2023-04-26T06:23:47;5.90;99.90
27540;DHT22;15906;52.046;4.724;2023-04-26T06:26:13;6.00;99.90
27540;DHT22;15906;52.046;4.724;2023-04-26T06:28:39;6.00;99.90
27540;DHT22;15906;52.046;4.724;2023-04-26T06:31:04;6.10;99.90
27540;DHT22;15906;52.046;4.724;2023-04-26T06:33:31;6.20;99.90
27540;DHT22;15906;52.046;4.724;2023-04-26T06:35:56;6.20;99.90
27540;DHT22;15906;52.046;4.724;2023-04-26T06:38:22;6.30;99.90
27540;DHT22;15906;52.046;4.724;2023-04-26T06:40:47;6.30;99.90
27540;DHT22;15906;52.046;4.724;2023-04-26T06:43:13;6.50;99.90
27540;DHT22;15906;52.046;4.724;2023-04-26T06:45:38;6.50;99.90
27540;DHT22;15906;52.046;4.724;2023-04-26T06:48:04;6.50;99.90
27540;DHT22;15906;52.046;4.724;2023-04-26T06:50:31;6.60;99.90
27540;DHT22;15906;52.046;4.724;2023-04-26T06:52:56;6.60;99.90
27540;DHT22;15906;52.046;4.724;2023-04-26T06:55:22;6.80;99.90
27540;DHT22;15906;52.046;4.724;2023-04-26T06:57:48;6.90;99.90
27540;DHT22;15906;52.046;4.724;2023-04-26T07:00:15;7.00;99.90
27540;DHT22;15906;52.046;4.724;2023-04-26T07:02:40;7.20;99.90
27540;DHT22;15906;52.046;4.724;2023-04-26T07:05:06;7.20;99.90
27540;DHT22;15906;52.046;4.724;2023-04-26T07:07:32;7.30;99.90
27540;DHT22;15906;52.046;4.724;2023-04-26T07:09:57;7.40;99.90
27540;DHT22;15906;52.046;4.724;2023-04-26T07:12:23;7.60;99.90
27540;DHT22;15906;52.046;4.724;2023-04-26T07:14:48;7.60;99.90
27540;DHT22;15906;52.046;4.724;2023-04-26T07:17:14;7.60;99.90
27540;DHT22;15906;52.046;4.724;2023-04-26T07:19:40;7.60;99.90
27540;DHT22;15906;52.046;4.724;2023-04-26T07:22:05;7.60;99.90
27540;DHT22;15906;52.046;4.724;2023-04-26T07:24:31;7.70;99.90
27540;DHT22;15906;52.046;4.724;2023-04-26T07:26:56;7.80;99.90
27540;DHT22;15906;52.046;4.724;2023-04-26T07:29:22;7.80;99.90
27540;DHT22;15906;52.046;4.724;2023-04-26T07:31:48;7.90;99.90
27540;DHT22;15906;52.046;4.724;2023-04-26T07:34:13;8.00;99.90
27540;DHT22;15906;52.046;4.724;2023-04-26T07:36:39;8.00;99.90
27540;DHT22;15906;52.046;4.724;2023-04-26T07:39:05;8.00;99.90
27540;DHT22;15906;52.046;4.724;2023-04-26T07:41:31;8.00;99.90
27540;DHT22;15906;52.046;4.724;2023-04-26T07:43:56;7.90;99.90
27540;DHT22;15906;52.046;4.724;2023-04-26T07:46:22;7.90;99.90
27540;DHT22;15906;52.046;4.724;2023-04-26T07:48:48;7.90;99.90
27540;DHT22;15906;52.046;4.724;2023-04-26T07:51:13;7.90;99.90
27540;DHT22;15906;52.046;4.724;2023-04-26T07:53:39;7.90;99.90
27540;DHT22;15906;52.046;4.724;2023-04-26T07:56:06;7.90;99.90
27540;DHT22;15906;52.046;4.724;2023-04-26T07:58:33;7.90;99.90
27540;DHT22;15906;52.046;4.724;2023-04-26T08:00:59;8.00;99.90
27540;DHT22;15906;52.046;4.724;2023-04-26T08:03:25;8.00;99.90
27540;DHT22;15906;52.046;4.724;2023-04-26T08:05:54;8.10;99.90
27540;DHT22;15906;52.046;4.724;2023-04-26T08:08:21;8.10;99.90
27540;DHT22;15906;52.046;4.724;2023-04-26T08:10:47;8.10;99.90
27540;DHT22;15906;52.046;4.724;2023-04-26T08:13:13;8.20;99.90
27540;DHT22;15906;52.046;4.724;2023-04-26T08:15:39;8.30;99.90
27540;DHT22;15906;52.046;4.724;2023-04-26T08:18:04;8.40;99.90
27540;DHT22;15906;52.046;4.724;2023-04-26T08:20:31;8.50;99.90
27540;DHT22;15906;52.046;4.724;2023-04-26T08:22:57;8.60;99.90
27540;DHT22;15906;52.046;4.724;2023-04-26T08:25:23;8.60;99.90
27540;DHT22;15906;52.046;4.724;2023-04-26T08:27:49;8.60;99.90
27540;DHT22;15906;52.046;4.724;2023-04-26T08:30:15;8.70;99.90
27540;DHT22;15906;52.046;4.724;2023-04-26T08:32:41;8.70;99.90
27540;DHT22;15906;52.046;4.724;2023-04-26T08:35:07;8.70;99.90
27540;DHT22;15906;52.046;4.724;2023-04-26T08:37:33;8.70;99.90
27540;DHT22;15906;52.046;4.724;2023-04-26T08:40:00;8.70;99.90
27540;DHT22;15906;52.046;4.724;2023-04-26T08:42:27;8.70;99.90
27540;DHT22;15906;52.046;4.724;2023-04-26T08:44:53;8.60;99.90
27540;DHT22;15906;52.046;4.724;2023-04-26T08:47:27;8.70;99.90
27540;DHT22;15906;52.046;4.724;2023-04-26T08:49:57;8.70;99.90
27540;DHT22;15906;52.046;4.724;2023-04-26T08:52:30;8.70;99.90
27540;DHT22;15906;52.046;4.724;2023-04-26T08:54:59;8.70;99.90
27540;DHT22;15906;52.046;4.724;2023-04-26T08:57:25;8.70;99.90
27540;DHT22;15906;52.046;4.724;2023-04-26T08:59:52;8.80;99.90
27540;DHT22;15906;52.046;4.724;2023-04-26T09:02:20;8.80;99.90
27540;DHT22;15906;52.046;4.724;2023-04-26T09:04:47;8.90;99.90
27540;DHT22;15906;52.046;4.724;2023-04-26T09:07:30;9.00;99.90
27540;DHT22;15906;52.046;4.724;2023-04-26T09:09:58;9.20;99.90
27540;DHT22;15906;52.046;4.724;2023-04-26T09:12:23;9.20;99.90
27540;DHT22;15906;52.046;4.724;2023-04-26T09:14:49;9.20;99.90
27540;DHT22;15906;52.046;4.724;2023-04-26T09:17:28;9.40;99.90
27540;DHT22;15906;52.046;4.724;2023-04-26T09:19:55;9.40;99.90
27540;DHT22;15906;52.046;4.724;2023-04-26T09:22:34;9.50;99.90
27540;DHT22;15906;52.046;4.724;2023-04-26T09:25:04;9.60;99.90
27540;DHT22;15906;52.046;4.724;2023-04-26T09:27:41;9.70;99.90
27540;DHT22;15906;52.046;4.724;2023-04-26T09:30:17;9.70;99.90
27540;DHT22;15906;52.046;4.724;2023-04-26T09:33:01;9.90;99.90
27540;DHT22;15906;52.046;4.724;2023-04-26T09:35:35;10.00;99.90
27540;DHT22;15906;52.046;4.724;2023-04-26T09:38:15;10.10;99.90
27540;DHT22;15906;52.046;4.724;2023-04-26T09:40:48;10.30;99.90
27540;DHT22;15906;52.046;4.724;2023-04-26T09:43:18;10.40;99.90
27540;DHT22;15906;52.046;4.724;2023-04-26T09:45:56;10.50;99.90
27540;DHT22;15906;52.046;4.724;2023-04-26T09:50:53;10.50;99.90
27540;DHT22;15906;52.046;4.724;2023-04-26T09:53:35;10.40;99.90
27540;DHT22;15906;52.046;4.724;2023-04-26T09:56:15;10.50;99.90
27540;DHT22;15906;52.046;4.724;2023-04-26T10:01:09;10.30;99.90
27540;DHT22;15906;52.046;4.724;2023-04-26T10:03:36;10.30;99.90
27540;DHT22;15906;52.046;4.724;2023-04-26T10:06:03;10.10;99.90
27540;DHT22;15906;52.046;4.724;2023-04-26T10:08:30;10.00;99.90
27540;DHT22;15906;52.046;4.724;2023-04-26T10:10:56;9.90;99.90
27540;DHT22;15906;52.046;4.724;2023-04-26T10:13:21;9.80;99.90
27540;DHT22;15906;52.046;4.724;2023-04-26T10:15:47;9.80;99.90
27540;DHT22;15906;52.046;4.724;2023-04-26T10:18:13;9.90;99.90
27540;DHT22;15906;52.046;4.724;2023-04-26T10:20:40;10.00;99.90
27540;DHT22;15906;52.046;4.724;2023-04-26T10:23:16;10.00;99.90
27540;DHT22;15906;52.046;4.724;2023-04-26T10:25:44;9.90;99.90
27540;DHT22;15906;52.046;4.724;2023-04-26T10:28:10;10.00;99.90
27540;DHT22;15906;52.046;4.724;2023-04-26T10:30:54;10.00;99.90
27540;DHT22;15906;52.046;4.724;2023-04-26T10:33:19;10.20;99.90
27540;DHT22;15906;52.046;4.724;2023-04-26T10:36:09;10.30;99.90
27540;DHT22;15906;52.046;4.724;2023-04-26T10:41:32;10.50;99.90
27540;DHT22;15906;52.046;4.724;2023-04-26T10:44:00;10.70;99.90
27540;DHT22;15906;52.046;4.724;2023-04-26T10:46:49;10.70;99.90
27540;DHT22;15906;52.046;4.724;2023-04-26T10:49:18;11.30;99.90
27540;DHT22;15906;52.046;4.724;2023-04-26T10:52:12;11.60;99.90
27540;DHT22;15906;52.046;4.724;2023-04-26T10:54:53;11.90;99.90
27540;DHT22;15906;52.046;4.724;2023-04-26T10:57:19;12.10;98.30
27540;DHT22;15906;52.046;4.724;2023-04-26T11:02:56;12.70;98.50
27540;DHT22;15906;52.046;4.724;2023-04-26T11:05:38;12.90;97.70
27540;DHT22;15906;52.046;4.724;2023-04-26T11:08:14;13.00;97.50
27540;DHT22;15906;52.046;4.724;2023-04-26T11:10:40;13.30;97.40
27540;DHT22;15906;52.046;4.724;2023-04-26T11:13:06;13.60;97.80
27540;DHT22;15906;52.046;4.724;2023-04-26T11:15:32;13.60;93.80
27540;DHT22;15906;52.046;4.724;2023-04-26T11:18:00;13.40;99.50
27540;DHT22;15906;52.046;4.724;2023-04-26T11:20:33;13.60;97.40
27540;DHT22;15906;52.046;4.724;2023-04-26T11:22:59;13.80;99.20
27540;DHT22;15906;52.046;4.724;2023-04-26T11:25:26;13.60;97.00
27540;DHT22;15906;52.046;4.724;2023-04-26T11:28:01;13.20;96.50
27540;DHT22;15906;52.046;4.724;2023-04-26T11:30:31;12.80;97.30
27540;DHT22;15906;52.046;4.724;2023-04-26T11:33:01;12.30;98.40
27540;DHT22;15906;52.046;4.724;2023-04-26T11:35:28;11.90;99.90
27540;DHT22;15906;52.046;4.724;2023-04-26T11:37:57;11.60;97.60
27540;DHT22;15906;52.046;4.724;2023-04-26T11:40:29;11.40;98.30
27540;DHT22;15906;52.046;4.724;2023-04-26T11:43:05;11.10;99.90
27540;DHT22;15906;52.046;4.724;2023-04-26T11:45:35;11.00;99.90
27540;DHT22;15906;52.046;4.724;2023-04-26T11:48:02;10.90;98.60
27540;DHT22;15906;52.046;4.724;2023-04-26T11:50:30;10.70;99.90
27540;DHT22;15906;52.046;4.724;2023-04-26T11:52:59;10.60;99.90
27540;DHT22;15906;52.046;4.724;2023-04-26T11:55:29;10.50;99.90
27540;DHT22;15906;52.046;4.724;2023-04-26T11:57:57;10.40;99.90
27540;DHT22;15906;52.046;4.724;2023-04-26T12:00:24;10.30;99.90
27540;DHT22;15906;52.046;4.724;2023-04-26T12:02:50;10.20;99.90
27540;DHT22;15906;52.046;4.724;2023-04-26T12:07:53;10.20;99.90
27540;DHT22;15906;52.046;4.724;2023-04-26T12:12:54;10.20;99.90
27540;DHT22;15906;52.046;4.724;2023-04-26T12:15:32;10.10;99.90
27540;DHT22;15906;52.046;4.724;2023-04-26T12:18:06;10.10;99.90
27540;DHT22;15906;52.046;4.724;2023-04-26T12:20:37;10.10;99.90
27540;DHT22;15906;52.046;4.724;2023-04-26T12:23:11;10.30;99.90
27540;DHT22;15906;52.046;4.724;2023-04-26T12:25:39;10.50;99.90
27540;DHT22;15906;52.046;4.724;2023-04-26T12:28:09;10.90;99.90
27540;DHT22;15906;52.046;4.724;2023-04-26T12:30:38;11.20;99.50
27540;DHT22;15906;52.046;4.724;2023-04-26T12:33:04;11.40;99.90
27540;DHT22;15906;52.046;4.724;2023-04-26T12:35:30;11.50;99.90
27540;DHT22;15906;52.046;4.724;2023-04-26T12:37:56;11.50;99.30
27540;DHT22;15906;52.046;4.724;2023-04-26T12:40:25;11.40;99.50
27540;DHT22;15906;52.046;4.724;2023-04-26T12:42:50;11.20;99.40
27540;DHT22;15906;52.046;4.724;2023-04-26T12:45:17;11.20;99.90
27540;DHT22;15906;52.046;4.724;2023-04-26T12:47:44;11.50;99.90
27540;DHT22;15906;52.046;4.724;2023-04-26T12:50:10;11.70;99.10
27540;DHT22;15906;52.046;4.724;2023-04-26T12:52:40;11.50;97.50
27540;DHT22;15906;52.046;4.724;2023-04-26T12:55:11;11.40;99.70
27540;DHT22;15906;52.046;4.724;2023-04-26T12:57:38;11.50;99.90
27540;DHT22;15906;52.046;4.724;2023-04-26T13:00:05;11.50;99.90
27540;DHT22;15906;52.046;4.724;2023-04-26T13:02:32;11.50;99.90
27540;DHT22;15906;52.046;4.724;2023-04-26T13:04:59;11.50;98.00
27540;DHT22;15906;52.046;4.724;2023-04-26T13:07:26;11.80;99.00
27540;DHT22;15906;52.046;4.724;2023-04-26T13:09:52;11.80;97.70
27540;DHT22;15906;52.046;4.724;2023-04-26T13:12:18;11.90;96.80
27540;DHT22;15906;52.046;4.724;2023-04-26T13:14:44;11.90;97.20
27540;DHT22;15906;52.046;4.724;2023-04-26T13:17:11;11.80;97.30
27540;DHT22;15906;52.046;4.724;2023-04-26T13:19:36;11.60;96.50
27540;DHT22;15906;52.046;4.724;2023-04-26T13:22:03;11.60;97.30
27540;DHT22;15906;52.046;4.724;2023-04-26T13:24:29;11.70;98.00
27540;DHT22;15906;52.046;4.724;2023-04-26T13:26:56;11.90;97.40
27540;DHT22;15906;52.046;4.724;2023-04-26T13:29:22;12.20;97.50
27540;DHT22;15906;52.046;4.724;2023-04-26T13:31:48;12.40;96.20
27540;DHT22;15906;52.046;4.724;2023-04-26T13:34:13;12.30;96.70
27540;DHT22;15906;52.046;4.724;2023-04-26T13:36:39;12.30;96.90
27540;DHT22;15906;52.046;4.724;2023-04-26T13:39:05;12.40;96.20
27540;DHT22;15906;52.046;4.724;2023-04-26T13:41:32;12.20;97.30
27540;DHT22;15906;52.046;4.724;2023-04-26T13:44:02;12.10;95.70
27540;DHT22;15906;52.046;4.724;2023-04-26T13:46:29;12.00;96.80
27540;DHT22;15906;52.046;4.724;2023-04-26T13:48:55;12.10;97.50
27540;DHT22;15906;52.046;4.724;2023-04-26T13:51:22;12.10;96.20
27540;DHT22;15906;52.046;4.724;2023-04-26T13:53:49;12.00;96.50
27540;DHT22;15906;52.046;4.724;2023-04-26T13:56:16;11.90;97.00
27540;DHT22;15906;52.046;4.724;2023-04-26T13:58:42;12.00;97.80
27540;DHT22;15906;52.046;4.724;2023-04-26T14:01:08;11.90;97.50
27540;DHT22;15906;52.046;4.724;2023-04-26T14:03:34;11.90;98.30
27540;DHT22;15906;52.046;4.724;2023-04-26T14:05:59;11.90;98.30
27540;DHT22;15906;52.046;4.724;2023-04-26T14:08:27;12.00;99.00
27540;DHT22;15906;52.046;4.724;2023-04-26T14:10:52;12.10;98.00
27540;DHT22;15906;52.046;4.724;2023-04-26T14:13:18;12.10;97.20
27540;DHT22;15906;52.046;4.724;2023-04-26T14:15:44;12.00;97.20
27540;DHT22;15906;52.046;4.724;2023-04-26T14:18:09;12.00;97.20
27540;DHT22;15906;52.046;4.724;2023-04-26T14:20:35;12.00;97.20
27540;DHT22;15906;52.046;4.724;2023-04-26T14:23:01;12.00;97.30
27540;DHT22;15906;52.046;4.724;2023-04-26T14:25:26;12.00;97.60
27540;DHT22;15906;52.046;4.724;2023-04-26T14:27:52;12.10;97.60
27540;DHT22;15906;52.046;4.724;2023-04-26T14:30:18;12.00;96.30
27540;DHT22;15906;52.046;4.724;2023-04-26T14:32:44;12.10;96.60
27540;DHT22;15906;52.046;4.724;2023-04-26T14:35:10;12.10;97.30
27540;DHT22;15906;52.046;4.724;2023-04-26T14:37:35;12.10;97.50
27540;DHT22;15906;52.046;4.724;2023-04-26T14:40:01;12.10;97.20
27540;DHT22;15906;52.046;4.724;2023-04-26T14:42:28;12.30;96.00
27540;DHT22;15906;52.046;4.724;2023-04-26T14:44:54;12.30;96.20
27540;DHT22;15906;52.046;4.724;2023-04-26T14:47:22;12.40;97.30
27540;DHT22;15906;52.046;4.724;2023-04-26T14:49:47;12.40;98.20
27540;DHT22;15906;52.046;4.724;2023-04-26T14:52:13;12.40;96.60
27540;DHT22;15906;52.046;4.724;2023-04-26T14:54:39;12.40;96.60
27540;DHT22;15906;52.046;4.724;2023-04-26T14:57:05;12.30;97.30
27540;DHT22;15906;52.046;4.724;2023-04-26T14:59:30;12.30;99.90
27540;DHT22;15906;52.046;4.724;2023-04-26T15:01:56;12.30;98.00
27540;DHT22;15906;52.046;4.724;2023-04-26T15:04:21;12.30;99.70
27540;DHT22;15906;52.046;4.724;2023-04-26T15:06:47;12.30;98.80
27540;DHT22;15906;52.046;4.724;2023-04-26T15:09:12;12.30;98.30
27540;DHT22;15906;52.046;4.724;2023-04-26T15:11:39;12.30;98.40
27540;DHT22;15906;52.046;4.724;2023-04-26T15:14:04;12.30;98.10
27540;DHT22;15906;52.046;4.724;2023-04-26T15:16:30;12.20;99.90
27540;DHT22;15906;52.046;4.724;2023-04-26T15:18:56;12.20;98.10
27540;DHT22;15906;52.046;4.724;2023-04-26T15:21:21;12.20;99.70
27540;DHT22;15906;52.046;4.724;2023-04-26T15:23:47;12.20;97.80
27540;DHT22;15906;52.046;4.724;2023-04-26T15:26:13;12.10;98.90
27540;DHT22;15906;52.046;4.724;2023-04-26T15:28:38;12.10;98.30
27540;DHT22;15906;52.046;4.724;2023-04-26T15:31:07;12.00;98.40
27540;DHT22;15906;52.046;4.724;2023-04-26T15:33:33;12.00;99.00
27540;DHT22;15906;52.046;4.724;2023-04-26T15:35:59;12.00;99.10
27540;DHT22;15906;52.046;4.724;2023-04-26T15:38:25;12.10;98.20
27540;DHT22;15906;52.046;4.724;2023-04-26T15:40:50;12.30;99.20
27540;DHT22;15906;52.046;4.724;2023-04-26T15:43:16;12.20;98.20
27540;DHT22;15906;52.046;4.724;2023-04-26T15:45:42;12.20;97.30
27540;DHT22;15906;52.046;4.724;2023-04-26T15:48:09;12.10;98.40
27540;DHT22;15906;52.046;4.724;2023-04-26T15:50:35;11.90;97.30
27540;DHT22;15906;52.046;4.724;2023-04-26T15:53:01;11.90;99.00
27540;DHT22;15906;52.046;4.724;2023-04-26T15:55:27;12.00;98.30
27540;DHT22;15906;52.046;4.724;2023-04-26T15:57:52;11.90;99.20
27540;DHT22;15906;52.046;4.724;2023-04-26T16:00:18;11.90;98.20
27540;DHT22;15906;52.046;4.724;2023-04-26T16:02:45;11.80;97.20
27540;DHT22;15906;52.046;4.724;2023-04-26T16:05:10;11.60;98.70
27540;DHT22;15906;52.046;4.724;2023-04-26T16:07:36;11.60;98.70